Terminal Aerodrome Forecast
Issued by NWS

Home | Current Version | Previous Version | Text Only | Print | Product List | Glossary On
Versions: 1 2 3 4 5 6 7 8 9 10 11 12 13 14 15 16 17 18 19 20
000
FTPA31 PHFO 040524
TAFHLI
TAF
PHLI 040524Z 0406/0506 27006KT P6SM FEW020 BKN150
     FM041400 27006KT P6SM VCSH SCT025 BKN050
     FM042000 17009KT P6SM SCT020 BKN050=

USA.gov is the U.S. government's official web portal to all federal, state and local government web resources and services.